Terminal Aerodrome Forecast
Issued by NWS

Home | Current Version | Previous Version | Text Only | Print | Product List | Glossary On
Versions: 1 2 3 4 5 6 7 8 9 10 11 12 13 14 15 16 17 18 19 20 21 22 23 24
000
FTUS43 KMQT 311721
TAFCMX
TAF
KCMX 311721Z 3118/0118 34012G17KT 3SM -SHSN OVC018
     FM312100 36013G19KT 3SM -SHSN BLSN OVC016
     FM010400 02009KT 3SM -SHSN BKN015
     FM010800 04005KT 5SM -SHSN BKN015=

USA.gov is the U.S. government's official web portal to all federal, state and local government web resources and services.